Pagrindinis puslapis
METAR-TAF:

METAR-TAF

Oro uostai :

Amanas, Jordanija

platuma: 31-59N, ilguma: 035-59E, Aukštis: 767 m

Dabartinis oras

Ataskaita buvo paskelbta 57 minutes, ne 22:00 UTC
Vėjas 6 kt iš Vakarų/Pietvakarių
Temperatūra 21°C
Drėgmė 78%
Slėgis 1015 hPa
Matomumas: 7000 m
Mažai debesys ne aukštis 3500 ft

METAR: OJAM 012200Z 25006KT 7000 FEW035 21/17 Q1015 NOSIG

Laikas: 01:57 (22:57 UTC)

Prognozė

Ataskaita buvo paskelbta 5 valandos ir 57 minutes, ne 17:00 UTC
Prognozė galioja nuo 01 metu 18 UTC su 02 metu 24 UTC
Vėjas 8 kt iš Šiaurės Vakarų
Matomumas: 5000 m
migla
Tikimybė 30% :
Laikinai
nuo 02 metu 01 UTC su 02 metu 06 UTC
Vėjas 3 kt nuo kintamojo kryptimis

TAF: OJAM 011700Z 0118/0224 32008KT 5000 HZ NSC PROB30 TEMPO 0201/0206 VRB03KT

Orai ataskaitas ir orų prognozės (METAR, TAF).

turimą stotys yra geltonos ir raudonos taškus žemėlapyje.

Perkelti pele per norėdami pamatyti stoties vardą.

Tada spustelėkite, norėdami matyti oro stebėjimo ir prognozės.

Norėdami pakeisti žemėlapį: spustelėkite ant žalios mygtukų su juodo kryžiaus žemyn,; žalią mygtuką su brūkšneliu, jei norite nutolinti; arba žalių rodyklių gretimoms žemėlapius.


METAR-TAF: